Terminal Aerodrome Forecast
Issued by NWS Blacksburg, VA

Current Version | Previous Version | Text Only | Print | Product List | Glossary Off
Versions: 1 2 3 4 5 6 7 8 9 10 11 12 13 14 15 16 17 18 19 20 21 22 23 24 25 26 27 28 29 30 31 32

000
FTUS41 KRNK 240802 AAA
TAFBLF
TAF AMD
KBLF 240802Z 2408/2506 22011KT P6SM OVC035 WS016/21045KT
     FM241000 21010KT P6SM SCT009 BKN025 WS014/23045KT
     FM241400 20009G19KT P6SM BKN030
     FM241500 22011G30KT P6SM SCT035=

USA.gov is the U.S. government's official web portal to all federal, state and local government web resources and services.